Piracuruca, Brazil
Current Conditions -  °F | °C
As of 7:00 PM on Monday 20 Oct 2014 (Local Time) from SBPB Reporting Station
Few Clouds Few Clouds  
Wind Chill: 82°   Ceiling: Unl
Heat Index: 89°   Visibility: 6mi
Dew Point: 75°   Wind: 17mph
Humidity: 79%   Direction: 100°E
Pressure: 29.8"   Gusts: NA
Location:  3.93°S, 41.71°W
Report Text: SBPB 202200Z 10015KT 9999 FEW017 28/24 Q1009
Loading
Personal Weather Stations






























Interactive Weather Map
Tropical Storm Tracking
New forecast layout! Learn more

10-Day Weather Forecast

Advertisements
Track Severe Weather on mobile